createdAt,value
2023-03-27T00:00:16.639Z,7.00
2023-03-27T00:02:47.075Z,6.90
2023-03-27T00:05:16.316Z,7.20
2023-03-27T00:07:48.790Z,6.40
2023-03-27T00:10:17.746Z,6.20
2023-03-27T00:12:46.181Z,6.10
2023-03-27T00:15:17.181Z,6.20
2023-03-27T00:17:48.086Z,6.20
2023-03-27T00:20:17.671Z,6.30
2023-03-27T00:22:48.432Z,6.30
2023-03-27T00:25:19.008Z,6.40
2023-03-27T00:27:49.570Z,6.60
2023-03-27T00:30:17.862Z,6.40
2023-03-27T00:32:46.134Z,6.50
2023-03-27T00:35:15.244Z,6.50
2023-03-27T00:37:43.411Z,6.50
2023-03-27T00:40:15.536Z,6.40
2023-03-27T00:42:44.235Z,6.40
2023-03-27T00:45:19.149Z,6.40
2023-03-27T00:47:49.295Z,6.40
2023-03-27T00:50:21.752Z,6.40
2023-03-27T00:52:56.315Z,6.50
2023-03-27T00:55:28.448Z,6.20
2023-03-27T00:58:02.252Z,6.40
2023-03-27T01:00:30.262Z,6.30
2023-03-27T01:03:01.092Z,6.40
2023-03-27T01:05:29.492Z,6.30
2023-03-27T01:08:01.541Z,6.40
2023-03-27T01:10:42.037Z,6.40
2023-03-27T01:13:32.271Z,6.30
2023-03-27T01:16:07.206Z,6.70
2023-03-27T01:18:45.315Z,6.30
2023-03-27T01:21:47.012Z,6.30
2023-03-27T01:24:54.826Z,6.20
2023-03-27T01:27:44.278Z,6.10
2023-03-27T01:30:19.158Z,6.50
2023-03-27T01:33:10.716Z,6.20
2023-03-27T01:35:59.109Z,6.20
2023-03-27T01:39:01.230Z,6.10
2023-03-27T01:41:33.129Z,6.10
2023-03-27T01:44:06.314Z,6.00
2023-03-27T01:46:41.966Z,6.00
2023-03-27T01:49:17.783Z,6.00
2023-03-27T01:51:55.750Z,5.90
2023-03-27T01:54:29.384Z,5.80
2023-03-27T01:57:04.447Z,5.80
2023-03-27T01:59:37.138Z,5.70
2023-03-27T02:02:10.395Z,5.80
2023-03-27T02:04:44.204Z,5.80
2023-03-27T02:07:18.779Z,6.30
2023-03-27T02:09:50.905Z,5.80
2023-03-27T02:12:22.894Z,5.80
2023-03-27T02:14:57.786Z,5.90
2023-03-27T02:17:50.840Z,5.80
2023-03-27T02:20:20.581Z,5.80
2023-03-27T02:22:49.640Z,5.70
2023-03-27T02:25:26.982Z,5.60
2023-03-27T02:28:12.501Z,5.30
2023-03-27T02:30:46.301Z,5.20
2023-03-27T02:33:41.644Z,5.10
2023-03-27T02:36:23.367Z,5.00
2023-03-27T02:38:58.398Z,5.00
2023-03-27T02:41:31.651Z,5.10
2023-03-27T02:44:10.396Z,5.20
2023-03-27T02:46:44.562Z,5.20
2023-03-27T02:49:18.684Z,5.30
2023-03-27T02:51:52.712Z,5.20
2023-03-27T02:54:24.341Z,5.30
2023-03-27T02:56:56.330Z,5.40
2023-03-27T02:59:30.927Z,5.20
2023-03-27T03:01:59.701Z,5.20
2023-03-27T03:04:31.029Z,5.20
2023-03-27T03:07:04.712Z,5.30
2023-03-27T03:09:32.992Z,5.10
2023-03-27T03:12:01.955Z,5.10
2023-03-27T03:14:35.795Z,5.00
2023-03-27T03:17:03.815Z,5.00
2023-03-27T03:19:32.587Z,5.00
2023-03-27T03:22:01.834Z,5.00
2023-03-27T03:24:30.093Z,4.90
2023-03-27T03:26:58.145Z,4.90
2023-03-27T03:29:35.489Z,4.80
2023-03-27T03:32:06.373Z,4.80
2023-03-27T03:34:34.594Z,4.80
2023-03-27T03:37:04.471Z,4.90
2023-03-27T03:39:33.066Z,4.90
2023-03-27T03:42:01.324Z,5.00
2023-03-27T03:44:29.469Z,5.20
2023-03-27T03:46:57.705Z,5.10
2023-03-27T03:49:27.285Z,5.10
2023-03-27T03:52:03.627Z,5.20
2023-03-27T03:54:32.888Z,5.30
2023-03-27T03:57:01.138Z,5.30
2023-03-27T03:59:30.157Z,5.20
2023-03-27T04:01:58.438Z,5.30
2023-03-27T04:04:27.864Z,5.40
2023-03-27T04:06:58.390Z,5.30
2023-03-27T04:09:26.702Z,5.40
2023-03-27T04:11:55.235Z,5.50
2023-03-27T04:14:23.808Z,5.50
2023-03-27T04:16:52.352Z,5.60
2023-03-27T04:19:20.366Z,5.60
2023-03-27T04:21:52.480Z,5.60
2023-03-27T04:24:20.770Z,5.60
2023-03-27T04:26:49.144Z,5.50
2023-03-27T04:29:17.217Z,5.60
2023-03-27T04:31:46.598Z,5.60
2023-03-27T04:34:14.816Z,5.50
2023-03-27T04:36:42.959Z,5.40
2023-03-27T04:39:12.629Z,5.50
2023-03-27T04:41:40.964Z,5.50
2023-03-27T04:44:09.237Z,5.50
2023-03-27T04:46:37.481Z,5.50
2023-03-27T04:49:06.106Z,5.50
2023-03-27T04:51:34.292Z,5.40
2023-03-27T04:54:04.824Z,5.20
2023-03-27T04:56:34.984Z,5.20
2023-03-27T04:59:03.599Z,5.10
2023-03-27T05:01:32.457Z,5.00
2023-03-27T05:04:02.455Z,5.10
2023-03-27T05:06:32.897Z,4.90
2023-03-27T05:09:01.163Z,4.80
2023-03-27T05:11:29.346Z,4.80
2023-03-27T05:13:58.928Z,4.90
2023-03-27T05:16:27.905Z,4.70
2023-03-27T05:18:56.580Z,4.70
2023-03-27T05:21:24.687Z,4.70
2023-03-27T05:23:55.761Z,4.70
2023-03-27T05:26:23.793Z,4.70
2023-03-27T05:28:54.512Z,4.90
2023-03-27T05:31:24.979Z,4.80
2023-03-27T05:33:54.529Z,4.90
2023-03-27T05:36:23.202Z,4.80
2023-03-27T05:38:53.567Z,4.90
2023-03-27T05:41:21.871Z,4.90
2023-03-27T05:43:51.291Z,4.90
2023-03-27T05:46:20.758Z,5.00
2023-03-27T05:48:50.869Z,4.90
2023-03-27T05:51:19.539Z,5.00
2023-03-27T05:53:47.915Z,5.00
2023-03-27T05:56:16.107Z,5.00
2023-03-27T05:58:44.359Z,5.10
2023-03-27T06:01:13.968Z,5.10
2023-03-27T06:03:42.146Z,5.20
2023-03-27T06:06:14.049Z,5.20
2023-03-27T06:08:42.168Z,5.10
2023-03-27T06:11:11.732Z,5.10
2023-03-27T06:13:39.747Z,5.10
2023-03-27T06:16:09.773Z,5.20
2023-03-27T06:18:37.850Z,5.20
2023-03-27T06:21:06.736Z,5.10
2023-03-27T06:23:36.604Z,5.10
2023-03-27T06:26:05.266Z,5.20
2023-03-27T06:28:33.440Z,5.20
2023-03-27T06:31:01.728Z,5.20
2023-03-27T06:33:30.995Z,5.40
2023-03-27T06:36:00.814Z,5.50
2023-03-27T06:38:31.336Z,5.50
2023-03-27T06:41:01.005Z,5.60
2023-03-27T06:43:29.008Z,5.60
2023-03-27T06:45:57.369Z,5.80
2023-03-27T06:48:28.957Z,5.80
2023-03-27T06:50:57.769Z,5.90
2023-03-27T06:53:28.186Z,5.90
2023-03-27T06:55:57.961Z,6.00
2023-03-27T06:58:29.034Z,6.00
2023-03-27T07:00:57.511Z,6.10
2023-03-27T07:03:26.328Z,6.10
2023-03-27T07:05:55.813Z,6.20
2023-03-27T07:08:25.625Z,6.20
2023-03-27T07:11:10.843Z,6.20
2023-03-27T07:13:42.651Z,6.10
2023-03-27T07:16:12.547Z,6.10
2023-03-27T07:18:41.989Z,6.20
2023-03-27T07:21:10.575Z,6.20
2023-03-27T07:23:39.552Z,6.20
2023-03-27T07:26:08.538Z,6.30
2023-03-27T07:28:38.479Z,6.20
2023-03-27T07:31:29.382Z,6.00
2023-03-27T07:34:02.221Z,6.10
2023-03-27T07:36:30.751Z,6.00
2023-03-27T07:38:59.541Z,6.20
2023-03-27T07:41:30.002Z,6.10
2023-03-27T07:43:58.040Z,6.20
2023-03-27T07:46:28.244Z,6.30
2023-03-27T07:48:56.797Z,6.50
2023-03-27T07:51:25.886Z,6.60
2023-03-27T07:53:58.519Z,6.60
2023-03-27T07:56:27.099Z,6.70
2023-03-27T07:58:57.286Z,6.70
2023-03-27T08:01:26.033Z,6.70
2023-03-27T08:03:57.151Z,6.60
2023-03-27T08:06:27.174Z,6.70
2023-03-27T08:08:56.108Z,6.70
2023-03-27T08:11:30.571Z,6.70
2023-03-27T08:13:59.777Z,6.80
2023-03-27T08:16:29.998Z,6.90
2023-03-27T08:19:01.516Z,6.90
2023-03-27T08:21:33.274Z,7.00
2023-03-27T08:24:02.862Z,7.10
2023-03-27T08:26:31.218Z,7.10
2023-03-27T08:28:59.372Z,7.10
2023-03-27T08:31:30.606Z,7.20
2023-03-27T08:34:00.353Z,7.10
2023-03-27T08:36:28.956Z,7.30
2023-03-27T08:38:57.069Z,7.30
2023-03-27T08:41:33.084Z,7.30
2023-03-27T08:44:04.248Z,7.40
2023-03-27T08:46:39.142Z,7.30
2023-03-27T08:49:12.550Z,7.30
2023-03-27T08:51:47.141Z,7.30
2023-03-27T08:54:21.536Z,7.30
2023-03-27T08:56:50.408Z,7.40
2023-03-27T08:59:21.047Z,7.40
2023-03-27T09:01:59.338Z,7.50
2023-03-27T09:04:39.821Z,7.50
2023-03-27T09:07:11.567Z,7.50
2023-03-27T09:09:55.833Z,7.50
2023-03-27T09:12:40.989Z,7.30
2023-03-27T09:15:15.145Z,7.30
2023-03-27T09:17:48.884Z,7.50
2023-03-27T09:20:24.314Z,7.70
2023-03-27T09:22:55.000Z,7.60
2023-03-27T09:25:29.461Z,7.80
2023-03-27T09:28:03.514Z,7.50
2023-03-27T09:30:36.177Z,7.10
2023-03-27T09:33:07.288Z,6.90
2023-03-27T09:35:40.431Z,6.70
2023-03-27T09:38:26.153Z,6.90
2023-03-27T09:40:59.560Z,7.20
2023-03-27T09:43:37.552Z,7.10
2023-03-27T09:46:07.520Z,7.20
2023-03-27T09:48:39.773Z,7.30
2023-03-27T09:51:43.436Z,7.40
2023-03-27T09:54:14.397Z,7.50
2023-03-27T09:56:46.464Z,7.70
2023-03-27T09:59:25.078Z,7.80
2023-03-27T10:01:54.629Z,8.00
2023-03-27T10:04:24.951Z,7.90
2023-03-27T10:07:09.454Z,7.60
2023-03-27T10:09:40.755Z,7.20
2023-03-27T10:12:19.520Z,7.00
2023-03-27T10:14:52.434Z,6.80
2023-03-27T10:17:26.139Z,6.80
2023-03-27T10:19:59.362Z,7.00
2023-03-27T10:22:32.692Z,7.10
2023-03-27T10:25:04.798Z,7.20
2023-03-27T10:27:35.036Z,7.10
2023-03-27T10:30:04.388Z,6.90
2023-03-27T10:32:45.708Z,6.80
2023-03-27T10:35:25.003Z,6.70
2023-03-27T10:37:56.706Z,6.70
2023-03-27T10:40:28.062Z,6.90
2023-03-27T10:42:57.632Z,6.80
2023-03-27T10:45:26.019Z,6.90
2023-03-27T10:47:59.169Z,7.10
2023-03-27T10:50:33.705Z,7.20
2023-03-27T10:53:15.704Z,7.40
2023-03-27T10:55:54.294Z,7.60
2023-03-27T10:58:32.832Z,7.50
2023-03-27T11:01:07.531Z,7.70
2023-03-27T11:03:39.957Z,7.60
2023-03-27T11:06:12.906Z,7.90
2023-03-27T11:08:53.042Z,7.80
2023-03-27T11:11:28.756Z,8.10
2023-03-27T11:14:02.489Z,8.20
2023-03-27T11:16:36.555Z,8.20
2023-03-27T11:19:25.962Z,8.00
2023-03-27T11:21:57.389Z,7.90
2023-03-27T11:24:35.103Z,7.70
2023-03-27T11:27:10.048Z,7.90
2023-03-27T11:29:46.563Z,8.10
2023-03-27T11:32:21.221Z,8.20
2023-03-27T11:34:57.549Z,8.30
2023-03-27T11:37:35.369Z,8.20
2023-03-27T11:40:12.454Z,8.30
2023-03-27T11:42:43.607Z,8.40
2023-03-27T11:45:14.278Z,8.50
2023-03-27T11:47:59.592Z,8.40
2023-03-27T11:50:41.627Z,8.40
2023-03-27T11:53:51.707Z,8.60
2023-03-27T11:56:38.851Z,8.50
2023-03-27T11:59:21.344Z,8.40
2023-03-27T12:01:57.557Z,8.70
2023-03-27T12:04:39.087Z,8.50
2023-03-27T12:07:35.469Z,8.60
2023-03-27T12:10:25.326Z,8.50
2023-03-27T12:13:34.970Z,8.50
2023-03-27T12:16:32.923Z,8.50
2023-03-27T12:19:21.133Z,8.50
2023-03-27T12:22:22.584Z,8.60
2023-03-27T12:25:09.080Z,8.60
2023-03-27T12:27:50.423Z,8.40
2023-03-27T12:30:27.741Z,8.40
2023-03-27T12:33:29.831Z,8.60
2023-03-27T12:36:00.394Z,8.60
2023-03-27T12:38:32.091Z,8.70
2023-03-27T12:41:13.983Z,8.80
2023-03-27T12:43:47.833Z,8.80
2023-03-27T12:46:40.779Z,8.80
2023-03-27T12:49:48.354Z,8.80
2023-03-27T12:59:29.920Z,8.80
2023-03-27T13:03:00.749Z,8.60
2023-03-27T13:06:09.106Z,8.40
2023-03-27T13:09:22.658Z,8.30
2023-03-27T13:12:12.428Z,8.40
2023-03-27T13:15:36.824Z,8.40
2023-03-27T13:18:44.093Z,8.40
2023-03-27T13:21:23.171Z,8.40
2023-03-27T13:24:03.832Z,8.40
2023-03-27T13:26:45.478Z,8.60
2023-03-27T13:29:18.215Z,8.60
2023-03-27T13:32:04.924Z,8.70
2023-03-27T13:34:42.017Z,8.90
2023-03-27T13:37:44.267Z,8.80
2023-03-27T13:40:36.943Z,8.70
2023-03-27T13:43:22.757Z,8.90
2023-03-27T13:45:53.824Z,8.90
2023-03-27T13:48:57.476Z,8.80
2023-03-27T13:51:47.721Z,8.80
2023-03-27T13:54:58.685Z,8.90
2023-03-27T13:57:51.513Z,8.80
2023-03-27T14:00:49.085Z,8.60
2023-03-27T14:03:48.842Z,8.60
2023-03-27T14:06:53.739Z,8.70
2023-03-27T14:09:31.936Z,8.60
2023-03-27T14:12:14.271Z,8.60
2023-03-27T14:14:54.489Z,8.70
2023-03-27T14:17:42.174Z,8.80
2023-03-27T14:20:21.930Z,9.00
2023-03-27T14:22:57.013Z,9.10
2023-03-27T14:25:30.375Z,9.30
2023-03-27T14:27:58.869Z,9.30
2023-03-27T14:30:28.367Z,9.40
2023-03-27T14:32:58.025Z,9.30
2023-03-27T14:35:30.476Z,9.20
2023-03-27T14:38:02.041Z,9.10
2023-03-27T14:40:32.853Z,9.00
2023-03-27T14:43:02.670Z,8.90
2023-03-27T14:45:34.530Z,8.90
2023-03-27T14:48:06.526Z,8.80
2023-03-27T14:50:35.624Z,8.70
2023-03-27T14:53:10.385Z,8.60
2023-03-27T14:55:42.654Z,8.60
2023-03-27T14:58:18.731Z,8.60
2023-03-27T15:00:52.646Z,8.70
2023-03-27T15:03:28.960Z,8.80
2023-03-27T15:06:04.618Z,8.80
2023-03-27T15:08:46.223Z,9.20
2023-03-27T15:11:18.574Z,9.40
2023-03-27T15:13:48.241Z,9.40
2023-03-27T15:16:22.629Z,9.30
2023-03-27T15:19:05.031Z,9.00
2023-03-27T15:21:45.351Z,9.00
2023-03-27T15:24:19.751Z,9.10
2023-03-27T15:26:51.211Z,8.90
2023-03-27T15:29:27.666Z,8.80
2023-03-27T15:31:59.713Z,8.70
2023-03-27T15:34:36.544Z,8.70
2023-03-27T15:37:10.083Z,8.60
2023-03-27T15:39:59.015Z,8.80
2023-03-27T15:42:45.724Z,8.90
2023-03-27T15:45:16.881Z,8.70
2023-03-27T15:47:45.880Z,8.70
2023-03-27T15:50:18.892Z,8.60
2023-03-27T15:52:51.824Z,8.60
2023-03-27T15:55:39.869Z,8.50
2023-03-27T15:58:17.462Z,8.70
2023-03-27T16:00:48.263Z,8.60
2023-03-27T16:03:22.852Z,8.70
2023-03-27T16:05:52.512Z,8.80
2023-03-27T16:08:29.086Z,8.80
2023-03-27T16:10:59.348Z,8.90
2023-03-27T16:13:33.478Z,9.00
2023-03-27T16:16:03.647Z,9.20
2023-03-27T16:18:35.059Z,9.30
2023-03-27T16:21:09.323Z,9.40
2023-03-27T16:23:38.210Z,9.50
2023-03-27T16:26:10.570Z,9.40
2023-03-27T16:28:38.777Z,9.40
2023-03-27T16:31:12.296Z,9.00
2023-03-27T16:33:42.883Z,8.90
2023-03-27T16:36:15.241Z,8.60
2023-03-27T16:38:44.108Z,8.60
2023-03-27T16:41:18.051Z,8.80
2023-03-27T16:43:46.706Z,8.90
2023-03-27T16:46:19.682Z,9.00
2023-03-27T16:48:47.706Z,9.10
2023-03-27T16:51:16.724Z,8.70
2023-03-27T16:53:44.805Z,8.70
2023-03-27T16:56:14.950Z,8.70
2023-03-27T16:58:43.472Z,8.80
2023-03-27T17:01:12.194Z,8.60
2023-03-27T17:03:40.933Z,8.70
2023-03-27T17:06:11.846Z,8.80
2023-03-27T17:08:40.374Z,8.80
2023-03-27T17:11:10.976Z,8.80
2023-03-27T17:13:43.295Z,8.60
2023-03-27T17:16:12.131Z,8.60
2023-03-27T17:18:40.917Z,8.50
2023-03-27T17:21:09.088Z,8.10
2023-03-27T17:23:37.861Z,8.00
2023-03-27T17:26:07.502Z,8.00
2023-03-27T17:28:37.350Z,7.90
2023-03-27T17:31:07.392Z,7.90
2023-03-27T17:33:37.113Z,7.90
2023-03-27T17:36:09.698Z,7.80
2023-03-27T17:38:38.175Z,7.60
2023-03-27T17:41:07.000Z,7.50
2023-03-27T17:43:35.171Z,7.40
2023-03-27T17:46:03.686Z,7.30
2023-03-27T17:48:35.490Z,7.20
2023-03-27T17:51:09.450Z,7.10
2023-03-27T17:53:38.031Z,7.00
2023-03-27T17:56:07.373Z,6.90
2023-03-27T17:58:37.027Z,6.90
2023-03-27T18:01:14.922Z,6.90
2023-03-27T18:03:50.942Z,6.90
2023-03-27T18:06:19.640Z,6.90
2023-03-27T18:08:48.531Z,6.90
2023-03-27T18:11:17.367Z,6.90
2023-03-27T18:13:51.453Z,6.90
2023-03-27T18:16:20.266Z,6.90
2023-03-27T18:18:48.518Z,6.90
2023-03-27T18:21:18.630Z,7.00
2023-03-27T18:23:47.101Z,7.00
2023-03-27T18:26:15.678Z,7.00
2023-03-27T18:28:43.979Z,6.90
2023-03-27T18:31:13.258Z,6.90
2023-03-27T18:33:41.417Z,6.80
2023-03-27T18:36:12.037Z,6.80
2023-03-27T18:38:43.394Z,6.80
2023-03-27T18:41:14.665Z,6.90
2023-03-27T18:43:42.906Z,6.90
2023-03-27T18:46:16.588Z,6.80
2023-03-27T18:48:45.790Z,7.00
2023-03-27T18:51:14.384Z,6.80
2023-03-27T18:53:44.253Z,6.80
2023-03-27T18:56:13.663Z,6.80
2023-03-27T18:58:42.304Z,6.80
2023-03-27T19:01:10.905Z,6.60
2023-03-27T19:03:42.531Z,6.80
2023-03-27T19:06:12.461Z,6.90
2023-03-27T19:08:42.186Z,6.70
2023-03-27T19:11:11.915Z,6.80
2023-03-27T19:13:40.384Z,6.80
2023-03-27T19:16:15.044Z,6.60
2023-03-27T19:18:44.168Z,6.60
2023-03-27T19:21:12.294Z,6.50
2023-03-27T19:23:40.549Z,6.20
2023-03-27T19:26:10.496Z,6.10
2023-03-27T19:28:40.563Z,6.10
2023-03-27T19:31:09.519Z,6.10
2023-03-27T19:33:38.191Z,6.20
2023-03-27T19:36:10.546Z,6.40
2023-03-27T19:38:38.877Z,6.30
2023-03-27T19:41:10.390Z,6.30
2023-03-27T19:43:40.304Z,6.30
2023-03-27T19:46:16.256Z,6.30
2023-03-27T19:48:45.393Z,6.30
2023-03-27T19:51:13.613Z,6.40
2023-03-27T19:53:42.172Z,6.50
2023-03-27T19:56:10.395Z,6.20
2023-03-27T19:58:40.111Z,6.20
2023-03-27T20:01:08.683Z,6.20
2023-03-27T20:03:38.876Z,6.30
2023-03-27T20:06:13.360Z,6.20
2023-03-27T20:08:42.588Z,6.20
2023-03-27T20:11:10.889Z,6.20
2023-03-27T20:13:52.934Z,6.20
2023-03-27T20:16:25.178Z,6.30
2023-03-27T20:19:03.192Z,6.20
2023-03-27T20:21:33.873Z,6.20
2023-03-27T20:24:02.319Z,6.20
2023-03-27T20:26:32.525Z,6.20
2023-03-27T20:29:02.617Z,6.10
2023-03-27T20:31:30.939Z,6.10
2023-03-27T20:33:59.504Z,6.10
2023-03-27T20:36:28.366Z,6.10
2023-03-27T20:38:59.375Z,6.10
2023-03-27T20:41:30.997Z,6.10
2023-03-27T20:44:03.629Z,6.10
2023-03-27T20:46:33.079Z,6.10
2023-03-27T20:49:03.716Z,6.00
2023-03-27T20:51:31.711Z,6.10
2023-03-27T20:54:00.048Z,6.00
2023-03-27T20:56:28.258Z,6.10
2023-03-27T20:58:56.419Z,6.00
2023-03-27T21:01:27.590Z,6.00
2023-03-27T21:04:02.895Z,5.80
2023-03-27T21:06:35.824Z,5.90
2023-03-27T21:09:11.587Z,5.90
2023-03-27T21:17:47.131Z,5.90
2023-03-27T21:52:44.469Z,5.30
2023-03-27T21:55:12.929Z,5.30
2023-03-27T21:57:41.762Z,5.20
2023-03-27T22:00:12.875Z,5.10
2023-03-27T22:02:52.254Z,5.10
2023-03-27T22:05:21.171Z,5.10
2023-03-27T22:07:59.248Z,5.00
2023-03-27T22:10:31.029Z,5.00
2023-03-27T22:13:13.274Z,5.00
2023-03-27T22:15:42.542Z,5.20
2023-03-27T22:18:11.647Z,5.20
2023-03-27T22:20:40.126Z,5.10
2023-03-27T22:23:10.105Z,4.90
2023-03-27T22:25:38.981Z,5.10
2023-03-27T22:28:10.651Z,5.10
2023-03-27T22:30:41.349Z,4.90
2023-03-27T22:33:09.802Z,4.90
2023-03-27T22:35:39.759Z,4.90
2023-03-27T22:38:10.593Z,4.90
2023-03-27T22:40:39.359Z,4.80
2023-03-27T22:43:07.861Z,4.70
2023-03-27T22:45:41.880Z,4.70
2023-03-27T22:48:11.375Z,4.70
2023-03-27T22:50:40.592Z,4.70
2023-03-27T22:53:14.941Z,4.70
2023-03-27T22:55:46.113Z,4.70
2023-03-27T22:58:15.231Z,4.70
2023-03-27T23:00:48.142Z,4.80
2023-03-27T23:03:18.135Z,4.60
2023-03-27T23:05:50.829Z,4.60
2023-03-27T23:08:24.166Z,4.50
2023-03-27T23:10:59.504Z,4.30
2023-03-27T23:13:29.676Z,4.40
2023-03-27T23:15:58.419Z,4.40
2023-03-27T23:18:27.363Z,4.40
2023-03-27T23:20:56.821Z,4.40
2023-03-27T23:23:28.817Z,4.40
2023-03-27T23:26:00.052Z,4.30
2023-03-27T23:28:31.888Z,4.40
2023-03-27T23:31:02.051Z,4.40
2023-03-27T23:33:34.649Z,4.50
2023-03-27T23:36:06.119Z,4.60
2023-03-27T23:38:37.393Z,4.40
2023-03-27T23:41:07.205Z,4.30
2023-03-27T23:43:35.866Z,4.30
2023-03-27T23:46:05.781Z,4.30
2023-03-27T23:48:34.216Z,4.30
2023-03-27T23:51:02.761Z,4.30
2023-03-27T23:53:31.858Z,4.60
2023-03-27T23:56:04.087Z,4.30
2023-03-27T23:58:33.299Z,4.30
